Time;durP1;ratioP1;P1;durP2;ratioP2;P2;SDS_P1;SDS_P2;PMS_P1;PMS_P2;Temp;Humidity;BMP_temperature;BMP_pressure;BME280_temperature;BME280_humidity;BME280_pressure;Samples;Min_cycle;Max_cycle;Signal;HPM_P1;HPM_P2
2022/05/04 00:01:08;;;;;;;8.70;5.25;;;;;;;;;;4904711;29;20174;-72
2022/05/04 00:03:39;;;;;;;10.45;6.10;;;;;;;;;;4900273;29;20025;-74
2022/05/04 00:06:07;;;;;;;8.23;5.72;;;;;;;;;;4906131;29;20032;-71
2022/05/04 00:08:34;;;;;;;11.05;5.78;;;;;;;;;;4905889;29;20044;-71
2022/05/04 00:11:00;;;;;;;10.40;5.93;;;;;;;;;;4900816;29;20049;-71
2022/05/04 00:13:26;;;;;;;10.05;5.57;;;;;;;;;;4904817;29;20255;-75
2022/05/04 00:15:53;;;;;;;8.70;5.50;;;;;;;;;;4903749;29;20479;-72
2022/05/04 00:18:19;;;;;;;8.77;5.93;;;;;;;;;;4903992;29;20020;-75
2022/05/04 00:20:45;;;;;;;12.27;5.93;;;;;;;;;;4902437;29;20029;-71
2022/05/04 00:23:11;;;;;;;8.82;5.60;;;;;;;;;;4903153;29;20032;-71
2022/05/04 00:25:37;;;;;;;11.27;6.05;;;;;;;;;;4901438;29;20176;-71
2022/05/04 00:28:04;;;;;;;9.23;5.50;;;;;;;;;;4904113;29;20037;-71
2022/05/04 00:30:31;;;;;;;10.73;5.72;;;;;;;;;;4903551;29;20028;-75
2022/05/04 00:32:57;;;;;;;11.20;5.18;;;;;;;;;;4901659;29;20600;-71
2022/05/04 00:35:23;;;;;;;9.45;5.47;;;;;;;;;;4900721;29;20079;-73
2022/05/04 00:37:49;;;;;;;11.50;6.00;;;;;;;;;;4908131;29;20091;-71
2022/05/04 00:40:17;;;;;;;9.35;5.80;;;;;;;;;;4908570;29;20467;-75
2022/05/04 00:42:43;;;;;;;9.02;4.85;;;;;;;;;;4905461;29;20152;-71
2022/05/04 00:45:09;;;;;;;9.93;5.30;;;;;;;;;;4904126;29;20111;-71
2022/05/04 00:47:35;;;;;;;8.98;5.18;;;;;;;;;;4908113;29;20016;-71
2022/05/04 00:50:04;;;;;;;8.82;5.10;;;;;;;;;;4910299;29;20037;-71
2022/05/04 00:52:31;;;;;;;10.52;5.45;;;;;;;;;;4909570;29;20064;-71
2022/05/04 00:54:57;;;;;;;10.85;5.40;;;;;;;;;;4905483;29;20394;-71
2022/05/04 01:00:09;;;;;;;8.55;4.95;;;;;;;;;;4908596;29;20068;-71
2022/05/04 01:02:37;;;;;;;10.30;5.47;;;;;;;;;;4892728;29;20052;-72
2022/05/04 01:05:03;;;;;;;7.60;5.00;;;;;;;;;;4909612;29;20028;-74
2022/05/04 01:07:29;;;;;;;14.63;5.35;;;;;;;;;;4905705;29;20083;-73
2022/05/04 01:09:55;;;;;;;10.10;5.07;;;;;;;;;;4908708;29;20044;-76
2022/05/04 01:12:24;;;;;;;10.00;5.32;;;;;;;;;;4904900;29;20096;-71
2022/05/04 01:14:50;;;;;;;10.30;5.80;;;;;;;;;;4905776;29;20040;-72
2022/05/04 01:17:16;;;;;;;8.82;5.22;;;;;;;;;;4904622;29;20048;-71
2022/05/04 01:19:42;;;;;;;6.05;4.90;;;;;;;;;;4906022;29;20020;-71
2022/05/04 01:22:09;;;;;;;8.05;4.95;;;;;;;;;;4901523;29;20039;-71
2022/05/04 01:24:35;;;;;;;9.63;5.10;;;;;;;;;;4907176;29;20382;-71
2022/05/04 01:27:04;;;;;;;10.38;5.47;;;;;;;;;;4906284;29;20080;-71
2022/05/04 01:29:30;;;;;;;6.95;4.93;;;;;;;;;;4906759;29;21012;-71
2022/05/04 01:31:56;;;;;;;10.48;4.80;;;;;;;;;;4898778;29;20376;-71
2022/05/04 01:34:26;;;;;;;7.93;4.72;;;;;;;;;;4888390;29;20498;-71
2022/05/04 01:36:52;;;;;;;9.00;4.97;;;;;;;;;;4887697;29;20109;-75
2022/05/04 01:39:18;;;;;;;9.52;5.50;;;;;;;;;;4898442;29;20104;-71
2022/05/04 01:42:02;;;;;;;8.05;5.20;;;;;;;;;;4904005;29;20028;-71
2022/05/04 01:44:29;;;;;;;11.23;5.10;;;;;;;;;;4905810;29;20043;-72
2022/05/04 01:46:55;;;;;;;6.90;5.05;;;;;;;;;;4903522;29;20035;-75
2022/05/04 01:49:21;;;;;;;7.43;5.05;;;;;;;;;;4901263;29;20091;-71
2022/05/04 01:51:51;;;;;;;6.97;4.50;;;;;;;;;;4904812;29;20025;-74
2022/05/04 01:54:18;;;;;;;7.80;4.80;;;;;;;;;;4902723;29;20426;-72
2022/05/04 01:56:44;;;;;;;6.95;5.13;;;;;;;;;;4905981;29;20039;-71
2022/05/04 01:59:10;;;;;;;7.88;4.97;;;;;;;;;;4904176;29;20056;-71
2022/05/04 02:01:38;;;;;;;7.10;5.30;;;;;;;;;;4905981;29;20043;-71
2022/05/04 02:04:04;;;;;;;10.63;5.40;;;;;;;;;;4905525;29;20052;-75
2022/05/04 02:06:31;;;;;;;7.65;4.90;;;;;;;;;;4904535;29;20595;-72
2022/05/04 02:08:57;;;;;;;8.52;4.63;;;;;;;;;;4906856;29;20017;-72
2022/05/04 02:11:24;;;;;;;6.65;4.22;;;;;;;;;;4904186;29;20517;-70
2022/05/04 02:13:50;;;;;;;7.65;4.57;;;;;;;;;;4902342;29;20032;-75
2022/05/04 02:16:16;;;;;;;5.85;4.22;;;;;;;;;;4909756;29;20037;-71
2022/05/04 02:18:42;;;;;;;6.25;4.88;;;;;;;;;;4907348;29;20015;-71
2022/05/04 02:21:09;;;;;;;6.28;4.47;;;;;;;;;;4907258;29;20040;-73
2022/05/04 02:23:37;;;;;;;7.57;4.43;;;;;;;;;;4907007;29;20005;-77
2022/05/04 02:26:03;;;;;;;8.23;4.43;;;;;;;;;;4905807;29;20029;-71
2022/05/04 02:28:29;;;;;;;8.32;4.20;;;;;;;;;;4902539;29;20068;-71
2022/05/04 02:30:56;;;;;;;6.95;4.32;;;;;;;;;;4904723;29;20368;-71
2022/05/04 02:33:24;;;;;;;6.25;3.67;;;;;;;;;;4903227;29;20032;-72
2022/05/04 02:38:35;;;;;;;8.60;4.10;;;;;;;;;;4905202;29;20100;-71
2022/05/04 02:41:01;;;;;;;10.65;4.78;;;;;;;;;;4907491;29;20040;-74
2022/05/04 02:43:29;;;;;;;5.63;4.03;;;;;;;;;;4906780;29;20386;-71
2022/05/04 02:45:56;;;;;;;6.82;4.20;;;;;;;;;;4901480;29;20053;-71
2022/05/04 02:48:22;;;;;;;7.80;4.10;;;;;;;;;;4899630;29;20024;-71
2022/05/04 02:50:51;;;;;;;7.78;4.28;;;;;;;;;;4906354;29;20057;-71
2022/05/04 02:53:17;;;;;;;5.95;4.00;;;;;;;;;;4906699;29;20044;-72
2022/05/04 02:55:43;;;;;;;7.10;4.22;;;;;;;;;;4906052;29;20093;-72
2022/05/04 02:58:09;;;;;;;7.40;4.50;;;;;;;;;;4903570;29;20127;-71
2022/05/04 03:00:37;;;;;;;10.27;4.20;;;;;;;;;;4903889;29;20036;-73
2022/05/04 03:03:03;;;;;;;5.68;4.07;;;;;;;;;;4906113;29;20057;-73
2022/05/04 03:05:29;;;;;;;7.15;3.90;;;;;;;;;;4906066;29;20015;-71
2022/05/04 03:07:55;;;;;;;7.15;3.67;;;;;;;;;;4883292;29;20028;-71
2022/05/04 03:10:21;;;;;;;4.85;3.67;;;;;;;;;;4905609;29;20080;-72
2022/05/04 03:12:49;;;;;;;5.72;4.00;;;;;;;;;;4904670;29;20032;-76
2022/05/04 03:15:15;;;;;;;5.50;3.60;;;;;;;;;;4904489;29;20176;-71
2022/05/04 03:17:41;;;;;;;10.20;3.78;;;;;;;;;;4903450;29;20375;-71
2022/05/04 03:20:08;;;;;;;8.38;3.92;;;;;;;;;;4906861;29;20439;-71
2022/05/04 03:22:34;;;;;;;6.30;3.88;;;;;;;;;;4902562;29;20031;-71
2022/05/04 03:25:00;;;;;;;5.35;3.63;;;;;;;;;;4904558;29;20099;-71
2022/05/04 03:27:26;;;;;;;6.50;3.70;;;;;;;;;;4904615;29;20541;-75
2022/05/04 03:29:52;;;;;;;9.55;3.75;;;;;;;;;;4904260;29;20043;-71
2022/05/04 03:32:18;;;;;;;5.82;3.40;;;;;;;;;;4903107;29;20139;-71
2022/05/04 03:34:44;;;;;;;11.50;4.03;;;;;;;;;;4907137;29;20008;-75
2022/05/04 03:37:10;;;;;;;13.07;4.55;;;;;;;;;;4906332;29;20049;-72
2022/05/04 03:39:36;;;;;;;11.13;4.30;;;;;;;;;;4902850;29;20394;-72
2022/05/04 03:42:03;;;;;;;10.02;4.07;;;;;;;;;;4906016;29;20124;-72
2022/05/04 03:44:29;;;;;;;5.75;3.72;;;;;;;;;;4910630;29;20013;-71
2022/05/04 03:46:55;;;;;;;5.63;3.20;;;;;;;;;;4902185;29;20032;-76
2022/05/04 03:49:22;;;;;;;5.93;3.85;;;;;;;;;;4903478;29;20021;-71
2022/05/04 03:51:48;;;;;;;5.50;3.55;;;;;;;;;;4905435;29;20427;-71
2022/05/04 03:54:15;;;;;;;8.02;3.50;;;;;;;;;;4905086;29;20016;-72
2022/05/04 03:56:41;;;;;;;5.57;4.05;;;;;;;;;;4906697;29;20024;-71
2022/05/04 03:59:08;;;;;;;6.85;3.83;;;;;;;;;;4904576;29;20044;-71
2022/05/04 04:01:34;;;;;;;9.02;3.85;;;;;;;;;;4900990;29;20032;-71
2022/05/04 04:04:00;;;;;;;5.80;3.80;;;;;;;;;;4906294;29;20041;-72
2022/05/04 04:06:26;;;;;;;7.43;4.20;;;;;;;;;;4902024;29;20079;-71
2022/05/04 04:08:52;;;;;;;6.68;3.97;;;;;;;;;;4906691;29;20035;-72
2022/05/04 04:11:19;;;;;;;6.18;3.80;;;;;;;;;;4904880;29;20096;-78
2022/05/04 04:13:45;;;;;;;6.05;3.60;;;;;;;;;;4915440;29;20020;-73
2022/05/04 04:16:12;;;;;;;6.45;3.97;;;;;;;;;;4907513;29;20091;-72
2022/05/04 04:18:38;;;;;;;6.05;3.95;;;;;;;;;;4910545;29;20029;-72
2022/05/04 04:23:49;;;;;;;5.97;3.67;;;;;;;;;;4910139;29;20119;-72
2022/05/04 04:26:15;;;;;;;44.15;5.95;;;;;;;;;;4905997;29;20049;-72
2022/05/04 04:28:41;;;;;;;14.00;4.68;;;;;;;;;;4901180;29;20088;-70
2022/05/04 04:31:09;;;;;;;14.43;4.43;;;;;;;;;;4892086;29;20033;-70
2022/05/04 04:33:35;;;;;;;12.05;4.32;;;;;;;;;;4896310;29;20120;-75
2022/05/04 04:36:01;;;;;;;8.70;4.20;;;;;;;;;;4897740;29;20088;-71
2022/05/04 04:38:27;;;;;;;9.02;4.32;;;;;;;;;;4897108;29;20100;-71
2022/05/04 04:40:53;;;;;;;9.15;3.88;;;;;;;;;;4894071;29;20108;-75
2022/05/04 04:43:19;;;;;;;6.90;3.80;;;;;;;;;;4896662;29;20100;-71
2022/05/04 04:45:49;;;;;;;6.15;3.67;;;;;;;;;;4896911;29;20036;-72
2022/05/04 04:48:16;;;;;;;6.18;3.50;;;;;;;;;;4898519;29;20364;-71
2022/05/04 04:50:46;;;;;;;8.20;3.88;;;;;;;;;;4882417;29;20040;-71
2022/05/04 04:53:12;;;;;;;12.68;5.10;;;;;;;;;;4900671;29;20025;-78
2022/05/04 04:55:41;;;;;;;15.75;5.35;;;;;;;;;;4898560;29;20074;-72
2022/05/04 04:58:07;;;;;;;18.42;5.88;;;;;;;;;;4894946;29;20037;-71
2022/05/04 05:00:33;;;;;;;14.15;5.18;;;;;;;;;;4896573;29;20365;-72
2022/05/04 05:02:59;;;;;;;7.85;3.92;;;;;;;;;;4896474;29;20079;-73
2022/05/04 05:05:25;;;;;;;10.55;4.63;;;;;;;;;;4898025;29;20483;-70
2022/05/04 05:07:52;;;;;;;11.20;4.78;;;;;;;;;;4863219;29;20404;-70
2022/05/04 05:10:18;;;;;;;12.18;5.38;;;;;;;;;;4877242;29;20036;-78
2022/05/04 05:21:00;;;;;;;8.48;4.75;;;;;;;;;;5482607;23;20067;-77
2022/05/04 05:23:26;;;;;;;13.15;5.57;;;;;;;;;;4957989;23;20056;-76
2022/05/04 05:25:54;;;;;;;13.52;5.50;;;;;;;;;;4893029;29;20037;-75
2022/05/04 05:28:21;;;;;;;11.60;5.82;;;;;;;;;;4881316;29;20044;-76
2022/05/04 05:30:47;;;;;;;12.10;5.70;;;;;;;;;;4880622;29;20044;-75
2022/05/04 05:33:13;;;;;;;18.48;6.15;;;;;;;;;;4897039;29;20036;-76
2022/05/04 05:35:39;;;;;;;17.13;6.85;;;;;;;;;;4897757;29;20423;-72
2022/05/04 05:38:07;;;;;;;15.98;7.80;;;;;;;;;;4899180;29;20037;-87
2022/05/04 05:40:33;;;;;;;14.52;7.65;;;;;;;;;;4899366;29;20025;-80
2022/05/04 05:42:59;;;;;;;17.23;7.70;;;;;;;;;;4882994;29;20033;-75
2022/05/04 05:45:25;;;;;;;16.42;7.57;;;;;;;;;;4880715;29;20064;-83
2022/05/04 05:47:52;;;;;;;13.73;6.93;;;;;;;;;;4897534;29;20032;-74
2022/05/04 05:50:18;;;;;;;14.70;6.90;;;;;;;;;;4898480;29;20063;-81
2022/05/04 05:52:44;;;;;;;20.95;7.47;;;;;;;;;;4897450;29;20028;-77
2022/05/04 05:55:10;;;;;;;10.02;6.45;;;;;;;;;;4880133;29;20470;-78
2022/05/04 05:57:36;;;;;;;10.02;6.80;;;;;;;;;;4896413;29;20024;-84
2022/05/04 06:00:03;;;;;;;17.35;6.88;;;;;;;;;;4898129;29;20111;-77
2022/05/04 06:02:29;;;;;;;19.10;6.80;;;;;;;;;;4898903;29;20035;-80
2022/05/04 06:04:56;;;;;;;19.90;7.20;;;;;;;;;;4895208;29;20145;-80
2022/05/04 06:07:22;;;;;;;22.73;7.13;;;;;;;;;;4897695;29;20493;-87
2022/05/04 06:09:48;;;;;;;14.00;6.32;;;;;;;;;;4878759;29;20456;-85
2022/05/04 06:12:14;;;;;;;14.15;6.90;;;;;;;;;;4881809;29;20407;-86
2022/05/04 06:14:40;;;;;;;10.00;6.15;;;;;;;;;;4867722;29;20029;-81
2022/05/04 06:17:06;;;;;;;17.95;6.22;;;;;;;;;;4879677;29;20037;-79
2022/05/04 06:19:32;;;;;;;19.23;7.45;;;;;;;;;;4879733;29;20424;-82
2022/05/04 06:21:58;;;;;;;14.32;6.05;;;;;;;;;;4875126;29;20032;-71
2022/05/04 06:24:26;;;;;;;11.68;5.97;;;;;;;;;;4877835;29;20045;-84
2022/05/04 06:26:52;;;;;;;11.07;5.78;;;;;;;;;;4877425;29;20025;-74
2022/05/04 06:29:18;;;;;;;14.40;6.50;;;;;;;;;;4877835;29;20748;-71
2022/05/04 06:34:31;;;;;;;10.25;5.93;;;;;;;;;;4874626;29;20145;-68
2022/05/04 06:36:57;;;;;;;11.85;6.40;;;;;;;;;;4876161;29;20045;-71
2022/05/04 06:39:23;;;;;;;9.98;5.88;;;;;;;;;;4878892;29;20033;-80
2022/05/04 06:41:49;;;;;;;15.15;6.38;;;;;;;;;;4879442;29;20036;-72
2022/05/04 06:44:16;;;;;;;14.77;7.13;;;;;;;;;;4878359;29;20100;-71
2022/05/04 06:46:42;;;;;;;16.50;7.55;;;;;;;;;;4878396;29;20033;-73
2022/05/04 06:49:09;;;;;;;10.27;6.30;;;;;;;;;;4879164;29;20053;-79
2022/05/04 06:51:35;;;;;;;14.18;6.43;;;;;;;;;;4878935;29;20052;-77
2022/05/04 06:54:01;;;;;;;25.45;7.90;;;;;;;;;;4878803;29;20036;-71
2022/05/04 06:56:27;;;;;;;19.88;7.00;;;;;;;;;;4877433;29;20037;-73
2022/05/04 06:58:53;;;;;;;10.95;6.10;;;;;;;;;;4879491;29;20029;-70
2022/05/04 07:01:22;;;;;;;13.70;6.05;;;;;;;;;;4879070;29;20067;-69
2022/05/04 07:03:48;;;;;;;10.15;5.32;;;;;;;;;;4878392;29;20062;-69
2022/05/04 07:06:14;;;;;;;15.00;6.57;;;;;;;;;;4877738;29;20074;-70
2022/05/04 07:08:41;;;;;;;13.98;6.30;;;;;;;;;;4879041;29;20025;-70
2022/05/04 07:11:07;;;;;;;20.17;7.10;;;;;;;;;;4884976;29;20025;-76
2022/05/04 07:13:33;;;;;;;11.27;6.20;;;;;;;;;;4861507;29;20044;-70
2022/05/04 07:15:59;;;;;;;9.48;5.85;;;;;;;;;;4878398;29;20037;-72
2022/05/04 07:18:25;;;;;;;12.90;5.40;;;;;;;;;;4877960;29;20056;-71
2022/05/04 07:20:51;;;;;;;13.48;5.60;;;;;;;;;;4862175;29;20484;-69
2022/05/04 07:23:17;;;;;;;23.48;6.95;;;;;;;;;;4878705;29;20072;-71
2022/05/04 07:25:44;;;;;;;23.00;5.80;;;;;;;;;;4877114;29;20433;-70
2022/05/04 07:28:10;;;;;;;13.43;5.63;;;;;;;;;;4878341;29;20036;-71
2022/05/04 07:30:36;;;;;;;12.45;5.78;;;;;;;;;;4877156;29;20492;-79
2022/05/04 07:33:02;;;;;;;11.52;6.68;;;;;;;;;;4874302;29;20029;-70
2022/05/04 07:35:28;;;;;;;14.27;5.40;;;;;;;;;;4877642;29;20037;-71
2022/05/04 07:37:54;;;;;;;11.02;5.25;;;;;;;;;;4878014;29;20108;-69
2022/05/04 07:43:05;;;;;;;11.30;5.07;;;;;;;;;;4878218;29;20092;-72
2022/05/04 07:45:31;;;;;;;52.72;6.88;;;;;;;;;;4875930;29;20084;-70
2022/05/04 07:47:57;;;;;;;9.50;4.50;;;;;;;;;;4878254;29;20029;-71
2022/05/04 07:50:25;;;;;;;8.23;4.85;;;;;;;;;;4877862;29;20060;-69
2022/05/04 07:52:51;;;;;;;14.10;6.80;;;;;;;;;;4876935;29;20029;-74
2022/05/04 07:55:17;;;;;;;198.95;17.23;;;;;;;;;;4877358;29;20037;-71
2022/05/04 07:57:47;;;;;;;51.88;8.65;;;;;;;;;;4876725;29;20066;-72
2022/05/04 08:05:43;;;;;;;9.35;4.68;;;;;;;;;;4877477;29;20036;-72
2022/05/04 08:08:09;;;;;;;12.27;4.38;;;;;;;;;;4878853;29;20607;-72
2022/05/04 08:10:35;;;;;;;7.50;4.10;;;;;;;;;;4882534;29;20028;-72
2022/05/04 08:13:01;;;;;;;10.95;5.38;;;;;;;;;;4877213;29;20037;-71
2022/05/04 08:15:27;;;;;;;10.27;3.95;;;;;;;;;;4877147;29;20093;-74
2022/05/04 08:17:53;;;;;;;7.18;3.75;;;;;;;;;;4878679;29;20031;-72
2022/05/04 08:20:20;;;;;;;9.98;4.40;;;;;;;;;;4877434;29;20161;-80
2022/05/04 08:22:47;;;;;;;9.93;4.10;;;;;;;;;;4878716;29;20391;-71
2022/05/04 08:25:13;;;;;;;5.88;3.40;;;;;;;;;;4876444;29;20132;-70
2022/05/04 08:27:39;;;;;;;7.43;3.60;;;;;;;;;;4877427;29;20087;-74
2022/05/04 08:30:05;;;;;;;8.32;3.97;;;;;;;;;;4877305;29;20040;-71
2022/05/04 08:32:31;;;;;;;7.00;3.97;;;;;;;;;;4878302;29;20120;-80
2022/05/04 08:34:58;;;;;;;12.02;4.18;;;;;;;;;;4853396;29;20044;-70
2022/05/04 08:37:24;;;;;;;10.05;4.65;;;;;;;;;;4876067;29;20031;-70
2022/05/04 08:39:50;;;;;;;7.43;4.00;;;;;;;;;;4876665;29;20025;-70
2022/05/04 08:42:17;;;;;;;9.35;4.40;;;;;;;;;;4876202;29;20032;-79
2022/05/04 08:44:44;;;;;;;7.70;4.18;;;;;;;;;;4878193;29;20024;-70
2022/05/04 08:47:13;;;;;;;11.63;4.03;;;;;;;;;;4876108;29;20033;-73
2022/05/04 08:49:41;;;;;;;8.13;3.97;;;;;;;;;;4878165;29;20029;-69
2022/05/04 08:52:08;;;;;;;9.23;4.05;;;;;;;;;;4876343;29;20040;-69
2022/05/04 08:54:34;;;;;;;25.75;6.15;;;;;;;;;;4875667;29;20040;-69
2022/05/04 08:57:00;;;;;;;8.98;4.22;;;;;;;;;;4875634;29;20120;-70
2022/05/04 08:59:28;;;;;;;9.88;4.57;;;;;;;;;;4881656;29;20036;-70
2022/05/04 09:01:54;;;;;;;5.20;3.67;;;;;;;;;;4882203;29;20067;-69
2022/05/04 09:04:20;;;;;;;12.07;4.35;;;;;;;;;;4881683;29;20033;-71
2022/05/04 09:06:47;;;;;;;9.30;3.85;;;;;;;;;;4880922;29;20116;-70
2022/05/04 09:09:13;;;;;;;14.60;4.30;;;;;;;;;;4881417;29;20029;-69
2022/05/04 09:11:43;;;;;;;9.95;3.70;;;;;;;;;;4879524;29;20064;-69
2022/05/04 09:14:26;;;;;;;6.50;3.47;;;;;;;;;;4881012;29;20033;-69
2022/05/04 09:16:52;;;;;;;7.97;4.30;;;;;;;;;;4881289;29;20044;-69
2022/05/04 09:19:18;;;;;;;8.55;3.10;;;;;;;;;;4880382;29;20033;-70
2022/05/04 09:21:47;;;;;;;29.40;4.13;;;;;;;;;;4881191;29;20072;-70
2022/05/04 09:24:15;;;;;;;28.65;4.28;;;;;;;;;;4881261;29;20060;-70
2022/05/04 09:26:44;;;;;;;9.27;3.17;;;;;;;;;;4881767;29;20051;-71
2022/05/04 09:29:13;;;;;;;5.70;3.20;;;;;;;;;;4881682;29;20153;-69
2022/05/04 09:31:41;;;;;;;9.48;3.63;;;;;;;;;;4880654;29;20040;-71
2022/05/04 09:34:08;;;;;;;10.52;3.85;;;;;;;;;;4881235;29;20062;-70
2022/05/04 09:36:35;;;;;;;6.00;3.55;;;;;;;;;;4881191;29;20052;-70
2022/05/04 09:44:54;;;;;;;6.55;3.30;;;;;;;;;;4881661;29;20051;-71
2022/05/04 09:47:21;;;;;;;6.28;3.50;;;;;;;;;;4883431;29;20039;-71
2022/05/04 09:49:53;;;;;;;4.22;3.22;;;;;;;;;;4880650;29;20052;-71
2022/05/04 09:52:23;;;;;;;6.57;3.63;;;;;;;;;;4880288;29;20032;-72
2022/05/04 09:54:52;;;;;;;6.47;3.55;;;;;;;;;;4880323;29;20551;-72
2022/05/04 09:57:20;;;;;;;7.75;3.50;;;;;;;;;;4880113;29;20032;-71
2022/05/04 09:59:46;;;;;;;5.40;3.63;;;;;;;;;;4880644;29;20029;-71
2022/05/04 10:02:13;;;;;;;8.73;3.50;;;;;;;;;;4880811;29;20037;-71
2022/05/04 10:04:39;;;;;;;7.72;3.65;;;;;;;;;;4880792;29;20036;-72
2022/05/04 10:07:06;;;;;;;8.43;3.50;;;;;;;;;;4880816;29;20854;-71
2022/05/04 10:09:32;;;;;;;5.78;3.42;;;;;;;;;;4879523;29;20025;-71
2022/05/04 10:12:00;;;;;;;8.77;3.70;;;;;;;;;;4881917;29;20025;-71
2022/05/04 10:14:27;;;;;;;8.57;3.90;;;;;;;;;;4881170;29;20084;-71
2022/05/04 10:17:07;;;;;;;8.57;3.50;;;;;;;;;;4880532;29;20586;-71
2022/05/04 10:19:41;;;;;;;8.80;4.47;;;;;;;;;;4880197;29;20029;-72
2022/05/04 10:22:10;;;;;;;11.85;4.60;;;;;;;;;;4880327;29;20033;-72
2022/05/04 10:24:37;;;;;;;7.80;3.53;;;;;;;;;;4879908;29;20057;-72
2022/05/04 10:27:16;;;;;;;12.07;3.72;;;;;;;;;;4883375;29;20037;-71
2022/05/04 10:32:27;;;;;;;8.05;3.60;;;;;;;;;;4879608;29;20104;-72
2022/05/04 10:35:12;;;;;;;22.15;4.50;;;;;;;;;;4880397;29;20033;-71
2022/05/04 10:37:59;;;;;;;5.35;3.40;;;;;;;;;;4880377;29;20044;-73
2022/05/04 10:40:26;;;;;;;6.60;3.30;;;;;;;;;;4862952;29;20101;-70
2022/05/04 10:43:01;;;;;;;7.15;3.78;;;;;;;;;;4877630;29;20052;-73
2022/05/04 10:45:31;;;;;;;20.17;5.20;;;;;;;;;;4876831;29;20361;-72
2022/05/04 10:48:03;;;;;;;10.27;3.80;;;;;;;;;;4872659;29;20029;-72
2022/05/04 10:50:46;;;;;;;6.25;3.90;;;;;;;;;;4878963;29;20031;-71
2022/05/04 10:53:41;;;;;;;8.90;3.40;;;;;;;;;;4871679;29;20492;-72
2022/05/04 10:56:12;;;;;;;7.65;3.35;;;;;;;;;;4876412;29;20061;-85
2022/05/04 10:58:44;;;;;;;7.97;3.35;;;;;;;;;;4881651;29;20436;-85
2022/05/04 11:01:12;;;;;;;14.90;7.30;;;;;;;;;;4861640;29;20733;-81
2022/05/04 11:03:39;;;;;;;5.50;3.60;;;;;;;;;;4876625;29;20428;-80
2022/05/04 11:06:11;;;;;;;10.23;3.80;;;;;;;;;;4878191;29;20052;-79
2022/05/04 11:08:37;;;;;;;7.55;3.42;;;;;;;;;;4876517;29;20051;-81
2022/05/04 11:11:05;;;;;;;6.78;3.60;;;;;;;;;;4881049;29;20053;-86
2022/05/04 11:13:31;;;;;;;8.45;3.53;;;;;;;;;;4857486;29;20061;-80
2022/05/04 11:16:01;;;;;;;8.88;3.65;;;;;;;;;;4859608;29;20051;-72
2022/05/04 11:18:28;;;;;;;7.05;3.55;;;;;;;;;;4878060;29;20597;-73
2022/05/04 11:20:54;;;;;;;7.82;3.28;;;;;;;;;;4879228;29;20033;-75
2022/05/04 11:23:26;;;;;;;9.80;3.30;;;;;;;;;;4878800;29;20523;-75
2022/05/04 11:25:53;;;;;;;10.07;3.58;;;;;;;;;;4878779;29;20033;-75
2022/05/04 11:28:20;;;;;;;8.73;3.70;;;;;;;;;;4878879;29;20081;-75
2022/05/04 11:30:46;;;;;;;8.95;3.58;;;;;;;;;;4879439;29;20103;-76
2022/05/04 11:33:15;;;;;;;8.05;3.67;;;;;;;;;;4879406;29;20036;-81
2022/05/04 11:35:44;;;;;;;12.40;4.38;;;;;;;;;;4879083;29;20044;-75
2022/05/04 11:38:21;;;;;;;9.63;3.50;;;;;;;;;;4876452;29;20029;-81
2022/05/04 11:40:47;;;;;;;9.52;3.60;;;;;;;;;;4879485;29;20025;-76
2022/05/04 11:43:33;;;;;;;7.47;3.40;;;;;;;;;;4877932;29;20033;-74
2022/05/04 11:46:03;;;;;;;8.70;3.38;;;;;;;;;;4883534;29;20036;-76
2022/05/04 11:48:30;;;;;;;6.30;3.78;;;;;;;;;;4878219;29;20033;-76
2022/05/04 11:50:56;;;;;;;8.60;3.88;;;;;;;;;;4878773;29;20471;-76
2022/05/04 11:53:22;;;;;;;11.57;3.60;;;;;;;;;;4878922;29;20115;-75
2022/05/04 11:55:48;;;;;;;6.55;3.42;;;;;;;;;;4878915;29;20045;-76
2022/05/04 11:58:14;;;;;;;10.25;3.40;;;;;;;;;;4878196;29;20037;-74
2022/05/04 12:00:41;;;;;;;11.50;3.22;;;;;;;;;;4878548;29;20093;-76
2022/05/04 12:03:08;;;;;;;8.30;3.15;;;;;;;;;;4873013;29;20408;-76
2022/05/04 12:05:34;;;;;;;6.88;3.63;;;;;;;;;;4877734;29;20033;-75
2022/05/04 12:08:01;;;;;;;5.38;3.35;;;;;;;;;;4878747;29;20128;-82
2022/05/04 12:10:27;;;;;;;5.63;2.95;;;;;;;;;;4878344;29;20036;-76
2022/05/04 12:12:54;;;;;;;6.07;3.50;;;;;;;;;;4878814;29;20044;-77
2022/05/04 12:15:38;;;;;;;4.85;3.08;;;;;;;;;;4878652;29;20029;-76
2022/05/04 12:18:08;;;;;;;6.90;3.20;;;;;;;;;;4878676;29;20029;-81
2022/05/04 12:20:34;;;;;;;5.03;3.25;;;;;;;;;;4878066;29;20025;-76
2022/05/04 12:23:04;;;;;;;4.88;3.67;;;;;;;;;;4878608;29;20115;-76
2022/05/04 12:25:31;;;;;;;11.50;4.10;;;;;;;;;;4878819;29;20037;-78
2022/05/04 12:27:57;;;;;;;8.85;3.30;;;;;;;;;;4878787;29;20029;-76
2022/05/04 12:33:09;;;;;;;5.88;3.30;;;;;;;;;;4881635;29;20069;-75
2022/05/04 12:35:39;;;;;;;7.22;3.60;;;;;;;;;;4882307;29;20025;-76
2022/05/04 12:38:06;;;;;;;8.77;3.55;;;;;;;;;;4882204;29;20040;-82
2022/05/04 12:40:34;;;;;;;6.18;3.17;;;;;;;;;;4883243;29;20099;-76
2022/05/04 12:43:00;;;;;;;6.55;3.47;;;;;;;;;;4881494;29;20040;-77
2022/05/04 12:45:27;;;;;;;6.82;3.15;;;;;;;;;;4882275;29;20043;-76
2022/05/04 12:47:54;;;;;;;5.65;3.30;;;;;;;;;;4882021;29;20036;-76
2022/05/04 12:50:24;;;;;;;7.20;3.50;;;;;;;;;;4882058;29;20112;-78
2022/05/04 12:52:50;;;;;;;7.13;3.20;;;;;;;;;;4880363;29;20021;-82
2022/05/04 12:55:17;;;;;;;5.53;3.15;;;;;;;;;;4881114;29;20056;-77
2022/05/04 12:57:43;;;;;;;7.93;3.30;;;;;;;;;;4881729;29;20025;-75
2022/05/04 13:00:12;;;;;;;5.15;3.40;;;;;;;;;;4846822;29;20459;-80
2022/05/04 13:02:39;;;;;;;7.68;3.50;;;;;;;;;;4875925;29;20033;-76
2022/05/04 13:05:06;;;;;;;7.45;3.60;;;;;;;;;;4881265;29;20032;-80
2022/05/04 13:07:34;;;;;;;20.50;13.35;;;;;;;;;;4881947;29;20029;-76
2022/05/04 13:10:00;;;;;;;7.57;3.47;;;;;;;;;;4881601;29;20090;-76
2022/05/04 13:12:26;;;;;;;5.57;3.08;;;;;;;;;;4881913;29;20485;-78
2022/05/04 13:14:52;;;;;;;9.27;3.35;;;;;;;;;;4881716;29;20419;-76
2022/05/04 13:17:18;;;;;;;6.57;3.50;;;;;;;;;;4881435;29;20037;-76
2022/05/04 13:19:44;;;;;;;5.55;3.63;;;;;;;;;;4881591;29;20022;-77
2022/05/04 13:22:10;;;;;;;7.68;3.42;;;;;;;;;;4881625;29;20044;-77
2022/05/04 13:24:36;;;;;;;5.75;3.40;;;;;;;;;;4881587;29;20558;-77
2022/05/04 13:27:02;;;;;;;11.43;3.80;;;;;;;;;;4881678;29;20040;-78
2022/05/04 13:29:29;;;;;;;6.90;3.20;;;;;;;;;;4880440;29;20035;-80
2022/05/04 13:31:55;;;;;;;6.28;3.17;;;;;;;;;;4865108;29;20026;-76
2022/05/04 13:34:21;;;;;;;6.88;5.13;;;;;;;;;;4871866;29;20057;-76
2022/05/04 13:36:47;;;;;;;5.85;3.10;;;;;;;;;;4862493;29;20136;-75
2022/05/04 13:39:13;;;;;;;5.35;3.17;;;;;;;;;;4865344;29;20029;-76
2022/05/04 13:41:39;;;;;;;8.52;3.47;;;;;;;;;;4861145;29;20057;-75
2022/05/04 13:44:05;;;;;;;7.63;3.10;;;;;;;;;;4863127;29;20041;-79
2022/05/04 13:46:31;;;;;;;8.52;3.78;;;;;;;;;;4862851;29;20038;-80
2022/05/04 13:48:57;;;;;;;7.63;3.40;;;;;;;;;;4861344;29;20476;-78
2022/05/04 13:54:12;;;;;;;9.50;3.60;;;;;;;;;;4861293;29;20129;-79
2022/05/04 13:56:38;;;;;;;15.80;3.75;;;;;;;;;;4865626;29;20084;-80
2022/05/04 13:59:04;;;;;;;8.80;3.35;;;;;;;;;;4867289;29;20108;-77
2022/05/04 14:01:30;;;;;;;5.47;3.00;;;;;;;;;;4867014;29;20096;-77
2022/05/04 14:03:56;;;;;;;7.25;3.35;;;;;;;;;;4864435;29;20025;-81
2022/05/04 14:06:22;;;;;;;7.60;3.50;;;;;;;;;;4866827;29;20030;-75
2022/05/04 14:08:49;;;;;;;6.43;3.10;;;;;;;;;;4880456;29;20025;-77
2022/05/04 14:11:15;;;;;;;7.40;3.47;;;;;;;;;;4880735;29;20102;-81
2022/05/04 14:13:42;;;;;;;5.72;3.30;;;;;;;;;;4880864;29;20418;-76
2022/05/04 14:16:10;;;;;;;6.60;3.60;;;;;;;;;;4880099;29;20032;-78
2022/05/04 14:18:36;;;;;;;5.13;3.15;;;;;;;;;;4880480;29;20025;-82
2022/05/04 14:21:03;;;;;;;7.50;3.28;;;;;;;;;;4880464;29;20036;-76
2022/05/04 14:23:30;;;;;;;8.07;3.90;;;;;;;;;;4863320;29;20052;-75
2022/05/04 14:25:56;;;;;;;4.80;3.20;;;;;;;;;;4880246;29;20044;-80
2022/05/04 14:28:27;;;;;;;8.77;3.25;;;;;;;;;;4876674;29;20037;-78
2022/05/04 14:30:53;;;;;;;4.10;3.10;;;;;;;;;;4878176;29;20476;-76
2022/05/04 14:33:20;;;;;;;7.82;3.50;;;;;;;;;;4878931;29;20681;-79
2022/05/04 14:35:46;;;;;;;10.88;3.88;;;;;;;;;;4869472;29;20120;-74
2022/05/04 14:38:12;;;;;;;5.50;3.20;;;;;;;;;;4877085;29;20032;-75
2022/05/04 14:40:38;;;;;;;7.22;3.55;;;;;;;;;;4877582;29;20029;-75
2022/05/04 14:43:04;;;;;;;7.70;3.30;;;;;;;;;;4878036;29;20033;-73
2022/05/04 14:45:30;;;;;;;7.45;2.90;;;;;;;;;;4875766;29;20112;-73
2022/05/04 14:47:57;;;;;;;5.05;3.55;;;;;;;;;;4878975;29;20029;-73
2022/05/04 14:50:24;;;;;;;4.72;3.20;;;;;;;;;;4877214;29;20128;-72
2022/05/04 14:52:51;;;;;;;7.65;3.50;;;;;;;;;;4878896;29;20057;-73
2022/05/04 14:55:17;;;;;;;13.40;3.78;;;;;;;;;;4874631;29;20033;-74
2022/05/04 14:57:43;;;;;;;4.57;2.95;;;;;;;;;;4879396;29;20064;-76
2022/05/04 15:00:09;;;;;;;5.50;3.90;;;;;;;;;;4878883;29;20029;-73
2022/05/04 15:05:01;;;;;;;6.78;3.50;;;;;;;;;;4879013;29;20033;-75
2022/05/04 15:05:21;;;;;;;5.45;3.70;;;;;;;;;;4873032;29;20036;-76
2022/05/04 15:07:49;;;;;;;6.07;3.30;;;;;;;;;;4868456;29;20472;-75
2022/05/04 15:10:16;;;;;;;7.70;3.10;;;;;;;;;;4878822;29;20108;-76
2022/05/04 15:12:42;;;;;;;4.75;3.25;;;;;;;;;;4878579;29;20036;-76
2022/05/04 15:15:08;;;;;;;6.10;3.42;;;;;;;;;;4876402;29;20097;-79
2022/05/04 15:17:34;;;;;;;5.75;3.10;;;;;;;;;;4878540;29;20080;-81
2022/05/04 15:20:00;;;;;;;8.88;3.45;;;;;;;;;;4862067;29;20396;-89